sensor_id;sensor_type;location;lat;lon;timestamp;temperature;humidity
19019;DHT22;9642;50.842;4.348;2022-08-18T00:00:41;21.20;99.90
19019;DHT22;9642;50.842;4.348;2022-08-18T00:03:07;21.30;99.90
19019;DHT22;9642;50.842;4.348;2022-08-18T00:05:36;21.30;99.90
19019;DHT22;9642;50.842;4.348;2022-08-18T00:08:02;21.30;99.90
19019;DHT22;9642;50.842;4.348;2022-08-18T00:10:29;21.20;99.90
19019;DHT22;9642;50.842;4.348;2022-08-18T00:12:55;21.10;99.90
19019;DHT22;9642;50.842;4.348;2022-08-18T00:15:20;21.10;99.90
19019;DHT22;9642;50.842;4.348;2022-08-18T00:17:47;21.10;99.90
19019;DHT22;9642;50.842;4.348;2022-08-18T00:20:18;21.10;99.90
19019;DHT22;9642;50.842;4.348;2022-08-18T00:22:45;21.00;99.90
19019;DHT22;9642;50.842;4.348;2022-08-18T00:25:13;20.90;99.90
19019;DHT22;9642;50.842;4.348;2022-08-18T00:27:39;20.90;99.90
19019;DHT22;9642;50.842;4.348;2022-08-18T00:30:13;21.00;99.90
19019;DHT22;9642;50.842;4.348;2022-08-18T00:32:43;21.10;99.90
19019;DHT22;9642;50.842;4.348;2022-08-18T00:35:16;21.00;99.90
19019;DHT22;9642;50.842;4.348;2022-08-18T00:37:43;21.10;99.90
19019;DHT22;9642;50.842;4.348;2022-08-18T00:40:15;21.20;99.90
19019;DHT22;9642;50.842;4.348;2022-08-18T00:42:51;21.10;99.90
19019;DHT22;9642;50.842;4.348;2022-08-18T00:45:21;21.00;99.90
19019;DHT22;9642;50.842;4.348;2022-08-18T00:47:47;21.00;99.90
19019;DHT22;9642;50.842;4.348;2022-08-18T00:50:17;20.90;99.90
19019;DHT22;9642;50.842;4.348;2022-08-18T00:52:53;20.90;99.90
19019;DHT22;9642;50.842;4.348;2022-08-18T00:55:21;20.90;99.90
19019;DHT22;9642;50.842;4.348;2022-08-18T00:57:50;20.90;99.90
19019;DHT22;9642;50.842;4.348;2022-08-18T01:00:16;20.90;99.90
19019;DHT22;9642;50.842;4.348;2022-08-18T01:02:46;20.90;99.90
19019;DHT22;9642;50.842;4.348;2022-08-18T01:05:21;20.90;99.90
19019;DHT22;9642;50.842;4.348;2022-08-18T01:07:47;20.90;99.90
19019;DHT22;9642;50.842;4.348;2022-08-18T01:10:32;20.90;99.90
19019;DHT22;9642;50.842;4.348;2022-08-18T01:12:58;20.90;99.90
19019;DHT22;9642;50.842;4.348;2022-08-18T01:15:26;20.90;99.90
19019;DHT22;9642;50.842;4.348;2022-08-18T01:17:52;20.90;99.90
19019;DHT22;9642;50.842;4.348;2022-08-18T01:23:47;20.80;99.90
19019;DHT22;9642;50.842;4.348;2022-08-18T01:26:15;20.80;99.90
19019;DHT22;9642;50.842;4.348;2022-08-18T01:28:44;20.80;99.90
19019;DHT22;9642;50.842;4.348;2022-08-18T01:31:12;20.90;99.90
19019;DHT22;9642;50.842;4.348;2022-08-18T01:33:53;20.90;99.90
19019;DHT22;9642;50.842;4.348;2022-08-18T01:36:20;20.90;99.90
19019;DHT22;9642;50.842;4.348;2022-08-18T01:38:49;20.90;99.90
19019;DHT22;9642;50.842;4.348;2022-08-18T01:41:17;20.90;99.90
19019;DHT22;9642;50.842;4.348;2022-08-18T01:43:43;20.90;99.90
19019;DHT22;9642;50.842;4.348;2022-08-18T01:46:11;20.90;99.90
19019;DHT22;9642;50.842;4.348;2022-08-18T01:48:38;20.80;99.90
19019;DHT22;9642;50.842;4.348;2022-08-18T01:51:07;20.80;99.90
19019;DHT22;9642;50.842;4.348;2022-08-18T01:53:36;20.80;99.90
19019;DHT22;9642;50.842;4.348;2022-08-18T01:56:03;20.70;99.90
19019;DHT22;9642;50.842;4.348;2022-08-18T01:58:35;20.90;99.90
19019;DHT22;9642;50.842;4.348;2022-08-18T02:01:01;21.10;99.90
19019;DHT22;9642;50.842;4.348;2022-08-18T02:03:36;21.10;99.90
19019;DHT22;9642;50.842;4.348;2022-08-18T02:06:06;21.10;99.90
19019;DHT22;9642;50.842;4.348;2022-08-18T02:08:35;21.10;99.90
19019;DHT22;9642;50.842;4.348;2022-08-18T02:11:00;21.20;99.90
19019;DHT22;9642;50.842;4.348;2022-08-18T02:13:28;21.30;99.90
19019;DHT22;9642;50.842;4.348;2022-08-18T02:15:54;21.20;99.90
19019;DHT22;9642;50.842;4.348;2022-08-18T02:18:26;21.20;99.90
19019;DHT22;9642;50.842;4.348;2022-08-18T02:20:54;21.10;99.90
19019;DHT22;9642;50.842;4.348;2022-08-18T02:23:20;21.00;99.90
19019;DHT22;9642;50.842;4.348;2022-08-18T02:25:50;21.00;99.90
19019;DHT22;9642;50.842;4.348;2022-08-18T02:28:25;21.20;99.90
19019;DHT22;9642;50.842;4.348;2022-08-18T02:30:51;21.40;99.90
19019;DHT22;9642;50.842;4.348;2022-08-18T02:33:17;21.40;99.90
19019;DHT22;9642;50.842;4.348;2022-08-18T02:35:42;21.40;99.90
19019;DHT22;9642;50.842;4.348;2022-08-18T02:38:10;21.30;99.90
19019;DHT22;9642;50.842;4.348;2022-08-18T02:40:42;21.30;99.90
19019;DHT22;9642;50.842;4.348;2022-08-18T02:43:11;21.30;99.90
19019;DHT22;9642;50.842;4.348;2022-08-18T02:45:40;21.30;99.90
19019;DHT22;9642;50.842;4.348;2022-08-18T02:48:08;21.20;99.90
19019;DHT22;9642;50.842;4.348;2022-08-18T02:50:36;21.20;99.90
19019;DHT22;9642;50.842;4.348;2022-08-18T02:53:16;21.10;99.90
19019;DHT22;9642;50.842;4.348;2022-08-18T02:55:48;21.10;99.90
19019;DHT22;9642;50.842;4.348;2022-08-18T02:58:14;21.10;99.90
19019;DHT22;9642;50.842;4.348;2022-08-18T03:00:40;21.00;99.90
19019;DHT22;9642;50.842;4.348;2022-08-18T03:03:07;20.90;99.90
19019;DHT22;9642;50.842;4.348;2022-08-18T03:05:33;20.90;99.90
19019;DHT22;9642;50.842;4.348;2022-08-18T03:07:59;20.90;99.90
19019;DHT22;9642;50.842;4.348;2022-08-18T03:10:26;20.90;99.90
19019;DHT22;9642;50.842;4.348;2022-08-18T03:12:51;20.90;99.90
19019;DHT22;9642;50.842;4.348;2022-08-18T03:15:17;20.80;99.90
19019;DHT22;9642;50.842;4.348;2022-08-18T03:17:43;20.90;99.90
19019;DHT22;9642;50.842;4.348;2022-08-18T03:20:09;20.90;99.90
19019;DHT22;9642;50.842;4.348;2022-08-18T03:22:36;20.90;99.90
19019;DHT22;9642;50.842;4.348;2022-08-18T03:25:03;20.80;99.90
19019;DHT22;9642;50.842;4.348;2022-08-18T03:27:29;20.80;99.90
19019;DHT22;9642;50.842;4.348;2022-08-18T03:29:55;20.70;99.90
19019;DHT22;9642;50.842;4.348;2022-08-18T03:32:22;20.80;99.90
19019;DHT22;9642;50.842;4.348;2022-08-18T03:34:48;20.80;99.90
19019;DHT22;9642;50.842;4.348;2022-08-18T03:37:13;20.70;99.90
19019;DHT22;9642;50.842;4.348;2022-08-18T03:39:42;20.80;99.90
19019;DHT22;9642;50.842;4.348;2022-08-18T03:42:08;20.80;99.90
19019;DHT22;9642;50.842;4.348;2022-08-18T03:44:35;20.80;99.90
19019;DHT22;9642;50.842;4.348;2022-08-18T03:47:08;20.90;99.90
19019;DHT22;9642;50.842;4.348;2022-08-18T03:49:35;20.90;99.90
19019;DHT22;9642;50.842;4.348;2022-08-18T03:52:02;21.00;99.90
19019;DHT22;9642;50.842;4.348;2022-08-18T03:54:29;21.10;99.90
19019;DHT22;9642;50.842;4.348;2022-08-18T03:56:56;21.20;99.90
19019;DHT22;9642;50.842;4.348;2022-08-18T03:59:24;21.10;99.90
19019;DHT22;9642;50.842;4.348;2022-08-18T04:01:52;21.10;99.90
19019;DHT22;9642;50.842;4.348;2022-08-18T04:04:28;21.20;99.90
19019;DHT22;9642;50.842;4.348;2022-08-18T04:06:57;21.20;99.90
19019;DHT22;9642;50.842;4.348;2022-08-18T04:09:30;21.10;99.90
19019;DHT22;9642;50.842;4.348;2022-08-18T04:12:00;20.90;99.90
19019;DHT22;9642;50.842;4.348;2022-08-18T04:14:27;20.90;99.90
19019;DHT22;9642;50.842;4.348;2022-08-18T04:17:01;20.90;99.90
19019;DHT22;9642;50.842;4.348;2022-08-18T04:19:27;21.00;99.90
19019;DHT22;9642;50.842;4.348;2022-08-18T04:21:55;21.00;99.90
19019;DHT22;9642;50.842;4.348;2022-08-18T04:24:21;20.90;99.90
19019;DHT22;9642;50.842;4.348;2022-08-18T04:26:47;21.10;99.90
19019;DHT22;9642;50.842;4.348;2022-08-18T04:29:15;21.10;99.90
19019;DHT22;9642;50.842;4.348;2022-08-18T04:31:42;21.10;99.90
19019;DHT22;9642;50.842;4.348;2022-08-18T04:34:08;21.00;99.90
19019;DHT22;9642;50.842;4.348;2022-08-18T04:36:35;21.10;99.90
19019;DHT22;9642;50.842;4.348;2022-08-18T04:39:04;21.10;99.90
19019;DHT22;9642;50.842;4.348;2022-08-18T04:41:30;21.10;99.90
19019;DHT22;9642;50.842;4.348;2022-08-18T04:43:57;21.10;99.90
19019;DHT22;9642;50.842;4.348;2022-08-18T04:46:24;21.20;99.90
19019;DHT22;9642;50.842;4.348;2022-08-18T04:48:50;21.30;99.90
19019;DHT22;9642;50.842;4.348;2022-08-18T04:51:21;21.20;99.90
19019;DHT22;9642;50.842;4.348;2022-08-18T04:53:47;21.20;99.90
19019;DHT22;9642;50.842;4.348;2022-08-18T04:56:37;21.20;99.90
19019;DHT22;9642;50.842;4.348;2022-08-18T04:59:09;21.30;99.90
19019;DHT22;9642;50.842;4.348;2022-08-18T05:01:43;21.40;99.90
19019;DHT22;9642;50.842;4.348;2022-08-18T05:04:15;21.50;99.90
19019;DHT22;9642;50.842;4.348;2022-08-18T05:06:51;21.50;99.90
19019;DHT22;9642;50.842;4.348;2022-08-18T05:09:26;21.50;99.90
19019;DHT22;9642;50.842;4.348;2022-08-18T05:11:52;21.50;99.90
19019;DHT22;9642;50.842;4.348;2022-08-18T05:14:32;21.50;99.90
19019;DHT22;9642;50.842;4.348;2022-08-18T05:17:00;21.50;99.90
19019;DHT22;9642;50.842;4.348;2022-08-18T05:19:26;21.40;99.90
19019;DHT22;9642;50.842;4.348;2022-08-18T05:21:57;21.40;99.90
19019;DHT22;9642;50.842;4.348;2022-08-18T05:24:25;21.40;99.90
19019;DHT22;9642;50.842;4.348;2022-08-18T05:26:53;21.30;99.90
19019;DHT22;9642;50.842;4.348;2022-08-18T05:29:25;21.20;99.90
19019;DHT22;9642;50.842;4.348;2022-08-18T05:31:52;21.30;99.90
19019;DHT22;9642;50.842;4.348;2022-08-18T05:34:19;21.20;99.90
19019;DHT22;9642;50.842;4.348;2022-08-18T05:42:12;21.00;99.90
19019;DHT22;9642;50.842;4.348;2022-08-18T05:44:44;21.00;99.90
19019;DHT22;9642;50.842;4.348;2022-08-18T05:47:27;21.20;99.90
19019;DHT22;9642;50.842;4.348;2022-08-18T05:49:55;21.20;99.90
19019;DHT22;9642;50.842;4.348;2022-08-18T05:52:31;21.20;99.90
19019;DHT22;9642;50.842;4.348;2022-08-18T05:55:13;21.20;99.90
19019;DHT22;9642;50.842;4.348;2022-08-18T05:58:03;21.30;99.90
19019;DHT22;9642;50.842;4.348;2022-08-18T06:00:31;21.30;99.90
19019;DHT22;9642;50.842;4.348;2022-08-18T06:03:02;21.20;99.90
19019;DHT22;9642;50.842;4.348;2022-08-18T06:05:33;21.10;99.90
19019;DHT22;9642;50.842;4.348;2022-08-18T06:08:08;21.10;99.90
19019;DHT22;9642;50.842;4.348;2022-08-18T06:10:46;21.20;99.90
19019;DHT22;9642;50.842;4.348;2022-08-18T06:13:12;21.30;99.90
19019;DHT22;9642;50.842;4.348;2022-08-18T06:18:59;21.40;99.90
19019;DHT22;9642;50.842;4.348;2022-08-18T06:27:03;21.50;99.90
19019;DHT22;9642;50.842;4.348;2022-08-18T06:32:45;21.60;99.90
19019;DHT22;9642;50.842;4.348;2022-08-18T06:35:46;21.80;99.90
19019;DHT22;9642;50.842;4.348;2022-08-18T06:41:09;22.20;99.90
19019;DHT22;9642;50.842;4.348;2022-08-18T06:43:38;22.00;99.90
19019;DHT22;9642;50.842;4.348;2022-08-18T06:46:16;22.10;99.90
19019;DHT22;9642;50.842;4.348;2022-08-18T06:48:55;22.00;99.90
19019;DHT22;9642;50.842;4.348;2022-08-18T06:51:26;21.90;99.90
19019;DHT22;9642;50.842;4.348;2022-08-18T06:53:54;21.80;99.90
19019;DHT22;9642;50.842;4.348;2022-08-18T06:56:34;21.80;99.90
19019;DHT22;9642;50.842;4.348;2022-08-18T06:59:30;21.90;99.90
19019;DHT22;9642;50.842;4.348;2022-08-18T07:02:09;22.00;99.90
19019;DHT22;9642;50.842;4.348;2022-08-18T07:04:42;22.00;99.90
19019;DHT22;9642;50.842;4.348;2022-08-18T07:07:28;22.00;99.90
19019;DHT22;9642;50.842;4.348;2022-08-18T07:09:54;22.30;99.90
19019;DHT22;9642;50.842;4.348;2022-08-18T07:12:24;22.30;99.90
19019;DHT22;9642;50.842;4.348;2022-08-18T07:14:56;22.30;99.90
19019;DHT22;9642;50.842;4.348;2022-08-18T07:17:31;22.40;99.90
19019;DHT22;9642;50.842;4.348;2022-08-18T07:20:00;22.60;99.90
19019;DHT22;9642;50.842;4.348;2022-08-18T07:22:27;22.60;99.90
19019;DHT22;9642;50.842;4.348;2022-08-18T07:24:56;22.70;99.90
19019;DHT22;9642;50.842;4.348;2022-08-18T07:27:47;22.80;99.90
19019;DHT22;9642;50.842;4.348;2022-08-18T07:32:57;22.60;99.90
19019;DHT22;9642;50.842;4.348;2022-08-18T07:35:36;22.50;99.90
19019;DHT22;9642;50.842;4.348;2022-08-18T07:38:37;22.90;99.90
19019;DHT22;9642;50.842;4.348;2022-08-18T07:41:20;23.30;99.90
19019;DHT22;9642;50.842;4.348;2022-08-18T07:46:22;23.60;99.30
19019;DHT22;9642;50.842;4.348;2022-08-18T07:48:50;23.70;98.70
19019;DHT22;9642;50.842;4.348;2022-08-18T07:54:08;23.90;98.20
19019;DHT22;9642;50.842;4.348;2022-08-18T07:59:53;23.10;99.40
19019;DHT22;9642;50.842;4.348;2022-08-18T08:02:51;23.30;99.30
19019;DHT22;9642;50.842;4.348;2022-08-18T08:05:48;23.30;99.10
19019;DHT22;9642;50.842;4.348;2022-08-18T08:08:27;23.40;99.20
19019;DHT22;9642;50.842;4.348;2022-08-18T08:25:00;23.20;99.40
19019;DHT22;9642;50.842;4.348;2022-08-18T08:27:49;23.50;99.00
19019;DHT22;9642;50.842;4.348;2022-08-18T08:30:23;24.00;98.10
19019;DHT22;9642;50.842;4.348;2022-08-18T08:33:21;24.40;97.10
19019;DHT22;9642;50.842;4.348;2022-08-18T08:35:52;23.80;97.50
19019;DHT22;9642;50.842;4.348;2022-08-18T08:38:29;23.60;98.10
19019;DHT22;9642;50.842;4.348;2022-08-18T08:41:10;23.60;98.00
19019;DHT22;9642;50.842;4.348;2022-08-18T08:43:44;23.70;97.70
19019;DHT22;9642;50.842;4.348;2022-08-18T08:46:22;23.70;97.80
19019;DHT22;9642;50.842;4.348;2022-08-18T08:48:55;24.00;97.70
19019;DHT22;9642;50.842;4.348;2022-08-18T08:51:35;24.30;97.10
19019;DHT22;9642;50.842;4.348;2022-08-18T08:54:09;24.60;96.30
19019;DHT22;9642;50.842;4.348;2022-08-18T08:56:43;24.70;96.40
19019;DHT22;9642;50.842;4.348;2022-08-18T08:59:12;24.50;96.90
19019;DHT22;9642;50.842;4.348;2022-08-18T09:04:54;26.20;93.90
19019;DHT22;9642;50.842;4.348;2022-08-18T09:07:39;28.70;90.70
19019;DHT22;9642;50.842;4.348;2022-08-18T09:24:28;26.70;92.10
19019;DHT22;9642;50.842;4.348;2022-08-18T09:29:53;28.70;89.50
19019;DHT22;9642;50.842;4.348;2022-08-18T09:37:53;33.20;72.80
19019;DHT22;9642;50.842;4.348;2022-08-18T09:40:47;31.70;74.40
19019;DHT22;9642;50.842;4.348;2022-08-18T09:46:00;28.30;86.30
19019;DHT22;9642;50.842;4.348;2022-08-18T09:48:34;27.40;89.00
19019;DHT22;9642;50.842;4.348;2022-08-18T09:51:39;27.00;90.60
19019;DHT22;9642;50.842;4.348;2022-08-18T09:54:11;29.10;85.70
19019;DHT22;9642;50.842;4.348;2022-08-18T10:02:09;33.70;69.10
19019;DHT22;9642;50.842;4.348;2022-08-18T10:04:38;33.80;68.30
19019;DHT22;9642;50.842;4.348;2022-08-18T10:07:39;33.70;67.40
19019;DHT22;9642;50.842;4.348;2022-08-18T10:18:34;30.40;78.70
19019;DHT22;9642;50.842;4.348;2022-08-18T10:21:12;31.60;72.90
19019;DHT22;9642;50.842;4.348;2022-08-18T10:31:22;31.40;72.90
19019;DHT22;9642;50.842;4.348;2022-08-18T10:36:46;29.80;78.60
19019;DHT22;9642;50.842;4.348;2022-08-18T10:39:20;29.30;81.60
19019;DHT22;9642;50.842;4.348;2022-08-18T10:41:56;28.60;83.80
19019;DHT22;9642;50.842;4.348;2022-08-18T10:44:23;27.90;87.10
19019;DHT22;9642;50.842;4.348;2022-08-18T10:46:50;27.90;87.20
19019;DHT22;9642;50.842;4.348;2022-08-18T10:49:26;28.00;87.30
19019;DHT22;9642;50.842;4.348;2022-08-18T10:57:15;30.40;78.30
19019;DHT22;9642;50.842;4.348;2022-08-18T10:59:53;31.20;75.60
19019;DHT22;9642;50.842;4.348;2022-08-18T11:05:37;30.70;73.30
19019;DHT22;9642;50.842;4.348;2022-08-18T11:08:05;29.90;77.30
19019;DHT22;9642;50.842;4.348;2022-08-18T11:10:46;29.70;78.30
19019;DHT22;9642;50.842;4.348;2022-08-18T11:16:47;29.90;79.40
19019;DHT22;9642;50.842;4.348;2022-08-18T11:19:17;29.90;78.50
19019;DHT22;9642;50.842;4.348;2022-08-18T11:21:49;29.10;80.00
19019;DHT22;9642;50.842;4.348;2022-08-18T11:24:28;28.70;82.30
19019;DHT22;9642;50.842;4.348;2022-08-18T11:26:59;28.00;84.80
19019;DHT22;9642;50.842;4.348;2022-08-18T11:29:36;28.00;85.80
19019;DHT22;9642;50.842;4.348;2022-08-18T11:32:15;27.90;86.50
19019;DHT22;9642;50.842;4.348;2022-08-18T11:34:49;28.70;86.20
19019;DHT22;9642;50.842;4.348;2022-08-18T11:46:01;31.00;72.50
19019;DHT22;9642;50.842;4.348;2022-08-18T11:48:46;31.00;71.70
19019;DHT22;9642;50.842;4.348;2022-08-18T11:56:22;30.60;71.80
19019;DHT22;9642;50.842;4.348;2022-08-18T12:04:05;31.30;70.50
19019;DHT22;9642;50.842;4.348;2022-08-18T12:06:33;31.90;67.80
19019;DHT22;9642;50.842;4.348;2022-08-18T12:09:07;32.40;65.90
19019;DHT22;9642;50.842;4.348;2022-08-18T12:12:23;31.90;68.20
19019;DHT22;9642;50.842;4.348;2022-08-18T12:17:28;33.00;65.70
19019;DHT22;9642;50.842;4.348;2022-08-18T12:19:54;32.60;65.90
19019;DHT22;9642;50.842;4.348;2022-08-18T12:22:25;31.80;67.40
19019;DHT22;9642;50.842;4.348;2022-08-18T12:24:52;31.30;69.20
19019;DHT22;9642;50.842;4.348;2022-08-18T12:27:21;30.80;70.40
19019;DHT22;9642;50.842;4.348;2022-08-18T12:29:52;30.60;71.30
19019;DHT22;9642;50.842;4.348;2022-08-18T12:32:20;29.90;72.90
19019;DHT22;9642;50.842;4.348;2022-08-18T12:34:48;29.40;74.80
19019;DHT22;9642;50.842;4.348;2022-08-18T12:37:25;29.00;75.90
19019;DHT22;9642;50.842;4.348;2022-08-18T12:39:53;28.70;76.60
19019;DHT22;9642;50.842;4.348;2022-08-18T12:42:19;28.40;77.40
19019;DHT22;9642;50.842;4.348;2022-08-18T12:44:45;28.60;78.00
19019;DHT22;9642;50.842;4.348;2022-08-18T12:47:14;28.80;78.00
19019;DHT22;9642;50.842;4.348;2022-08-18T12:49:41;29.30;77.40
19019;DHT22;9642;50.842;4.348;2022-08-18T12:52:08;29.60;76.30
19019;DHT22;9642;50.842;4.348;2022-08-18T12:54:34;30.00;75.00
19019;DHT22;9642;50.842;4.348;2022-08-18T12:57:01;29.70;75.50
19019;DHT22;9642;50.842;4.348;2022-08-18T12:59:28;29.30;76.30
19019;DHT22;9642;50.842;4.348;2022-08-18T13:01:54;29.10;77.50
19019;DHT22;9642;50.842;4.348;2022-08-18T13:04:20;29.10;76.10
19019;DHT22;9642;50.842;4.348;2022-08-18T13:06:48;28.30;78.40
19019;DHT22;9642;50.842;4.348;2022-08-18T13:09:15;27.70;81.00
19019;DHT22;9642;50.842;4.348;2022-08-18T13:11:41;27.50;82.70
19019;DHT22;9642;50.842;4.348;2022-08-18T13:14:07;27.70;81.90
19019;DHT22;9642;50.842;4.348;2022-08-18T13:16:37;27.60;81.60
19019;DHT22;9642;50.842;4.348;2022-08-18T13:19:04;27.80;81.40
19019;DHT22;9642;50.842;4.348;2022-08-18T13:21:30;27.90;81.30
19019;DHT22;9642;50.842;4.348;2022-08-18T13:23:56;28.00;81.80
19019;DHT22;9642;50.842;4.348;2022-08-18T13:26:26;28.10;81.70
19019;DHT22;9642;50.842;4.348;2022-08-18T13:28:52;28.30;81.10
19019;DHT22;9642;50.842;4.348;2022-08-18T13:31:19;28.20;80.30
19019;DHT22;9642;50.842;4.348;2022-08-18T13:33:45;28.30;79.00
19019;DHT22;9642;50.842;4.348;2022-08-18T13:36:11;27.90;81.60
19019;DHT22;9642;50.842;4.348;2022-08-18T13:38:38;27.80;81.80
19019;DHT22;9642;50.842;4.348;2022-08-18T13:41:07;28.00;82.30
19019;DHT22;9642;50.842;4.348;2022-08-18T13:43:40;28.40;80.60
19019;DHT22;9642;50.842;4.348;2022-08-18T13:46:15;28.70;79.50
19019;DHT22;9642;50.842;4.348;2022-08-18T13:48:41;28.90;78.20
19019;DHT22;9642;50.842;4.348;2022-08-18T13:51:09;29.20;77.40
19019;DHT22;9642;50.842;4.348;2022-08-18T13:53:39;29.30;77.10
19019;DHT22;9642;50.842;4.348;2022-08-18T13:56:05;29.30;76.50
19019;DHT22;9642;50.842;4.348;2022-08-18T13:58:31;29.20;75.90
19019;DHT22;9642;50.842;4.348;2022-08-18T14:01:00;29.40;75.80
19019;DHT22;9642;50.842;4.348;2022-08-18T14:03:28;29.60;77.30
19019;DHT22;9642;50.842;4.348;2022-08-18T14:05:54;29.90;77.90
19019;DHT22;9642;50.842;4.348;2022-08-18T14:08:24;29.90;75.40
19019;DHT22;9642;50.842;4.348;2022-08-18T14:10:54;29.50;77.20
19019;DHT22;9642;50.842;4.348;2022-08-18T14:13:20;29.70;77.50
19019;DHT22;9642;50.842;4.348;2022-08-18T14:15:50;29.80;76.10
19019;DHT22;9642;50.842;4.348;2022-08-18T14:18:16;29.80;75.70
19019;DHT22;9642;50.842;4.348;2022-08-18T14:20:42;30.00;74.40
19019;DHT22;9642;50.842;4.348;2022-08-18T14:23:27;30.00;74.30
19019;DHT22;9642;50.842;4.348;2022-08-18T14:26:11;29.80;74.40
19019;DHT22;9642;50.842;4.348;2022-08-18T14:28:56;29.40;76.00
19019;DHT22;9642;50.842;4.348;2022-08-18T14:31:22;29.50;78.10
19019;DHT22;9642;50.842;4.348;2022-08-18T14:33:48;29.50;78.30
19019;DHT22;9642;50.842;4.348;2022-08-18T14:36:15;29.60;78.30
19019;DHT22;9642;50.842;4.348;2022-08-18T14:38:41;29.10;78.60
19019;DHT22;9642;50.842;4.348;2022-08-18T14:41:11;28.90;80.30
19019;DHT22;9642;50.842;4.348;2022-08-18T14:43:37;28.70;81.30
19019;DHT22;9642;50.842;4.348;2022-08-18T14:46:04;28.60;82.20
19019;DHT22;9642;50.842;4.348;2022-08-18T14:48:30;28.70;82.40
19019;DHT22;9642;50.842;4.348;2022-08-18T14:50:58;28.60;82.80
19019;DHT22;9642;50.842;4.348;2022-08-18T14:53:27;28.60;82.30
19019;DHT22;9642;50.842;4.348;2022-08-18T14:55:54;28.50;83.40
19019;DHT22;9642;50.842;4.348;2022-08-18T14:58:23;28.40;83.60
19019;DHT22;9642;50.842;4.348;2022-08-18T15:01:00;28.40;83.30
19019;DHT22;9642;50.842;4.348;2022-08-18T15:03:29;28.50;82.60
19019;DHT22;9642;50.842;4.348;2022-08-18T15:05:55;28.70;82.30
19019;DHT22;9642;50.842;4.348;2022-08-18T15:08:22;28.70;81.50
19019;DHT22;9642;50.842;4.348;2022-08-18T15:10:48;28.80;80.90
19019;DHT22;9642;50.842;4.348;2022-08-18T15:13:14;28.70;81.50
19019;DHT22;9642;50.842;4.348;2022-08-18T15:15:40;28.60;81.50
19019;DHT22;9642;50.842;4.348;2022-08-18T15:18:09;28.60;82.40
19019;DHT22;9642;50.842;4.348;2022-08-18T15:20:35;28.60;81.20
19019;DHT22;9642;50.842;4.348;2022-08-18T15:23:21;28.50;81.60
19019;DHT22;9642;50.842;4.348;2022-08-18T15:26:06;28.20;81.70
19019;DHT22;9642;50.842;4.348;2022-08-18T15:28:32;28.20;81.90
19019;DHT22;9642;50.842;4.348;2022-08-18T15:30:58;28.00;82.40
19019;DHT22;9642;50.842;4.348;2022-08-18T15:33:26;28.10;82.00
19019;DHT22;9642;50.842;4.348;2022-08-18T15:35:53;28.30;81.10
19019;DHT22;9642;50.842;4.348;2022-08-18T15:38:22;28.30;80.80
19019;DHT22;9642;50.842;4.348;2022-08-18T15:40:50;28.40;80.80
19019;DHT22;9642;50.842;4.348;2022-08-18T15:43:16;28.20;81.40
19019;DHT22;9642;50.842;4.348;2022-08-18T15:45:45;28.00;82.00
19019;DHT22;9642;50.842;4.348;2022-08-18T15:48:16;27.90;82.00
19019;DHT22;9642;50.842;4.348;2022-08-18T15:50:43;28.10;81.80
19019;DHT22;9642;50.842;4.348;2022-08-18T15:53:11;28.20;81.20
19019;DHT22;9642;50.842;4.348;2022-08-18T15:55:39;28.30;80.80
19019;DHT22;9642;50.842;4.348;2022-08-18T15:58:05;28.40;80.50
19019;DHT22;9642;50.842;4.348;2022-08-18T16:00:32;28.30;81.30
19019;DHT22;9642;50.842;4.348;2022-08-18T16:03:02;28.30;81.50
19019;DHT22;9642;50.842;4.348;2022-08-18T16:05:31;28.50;80.80
19019;DHT22;9642;50.842;4.348;2022-08-18T16:07:58;28.50;80.60
19019;DHT22;9642;50.842;4.348;2022-08-18T16:10:27;28.70;79.60
19019;DHT22;9642;50.842;4.348;2022-08-18T16:12:54;28.80;79.70
19019;DHT22;9642;50.842;4.348;2022-08-18T16:15:23;28.90;79.80
19019;DHT22;9642;50.842;4.348;2022-08-18T16:17:51;29.00;78.70
19019;DHT22;9642;50.842;4.348;2022-08-18T16:20:18;29.00;77.80
19019;DHT22;9642;50.842;4.348;2022-08-18T16:22:45;28.90;77.50
19019;DHT22;9642;50.842;4.348;2022-08-18T16:25:12;28.80;77.40
19019;DHT22;9642;50.842;4.348;2022-08-18T16:27:38;28.50;78.50
19019;DHT22;9642;50.842;4.348;2022-08-18T16:30:10;28.40;78.40
19019;DHT22;9642;50.842;4.348;2022-08-18T16:32:36;28.20;78.70
19019;DHT22;9642;50.842;4.348;2022-08-18T16:35:02;28.10;79.20
19019;DHT22;9642;50.842;4.348;2022-08-18T16:37:29;28.00;79.60
19019;DHT22;9642;50.842;4.348;2022-08-18T16:39:55;27.90;80.70
19019;DHT22;9642;50.842;4.348;2022-08-18T16:42:21;27.80;81.70
19019;DHT22;9642;50.842;4.348;2022-08-18T16:44:47;27.70;82.30
19019;DHT22;9642;50.842;4.348;2022-08-18T16:47:14;27.70;82.50
19019;DHT22;9642;50.842;4.348;2022-08-18T16:49:42;27.60;82.30
19019;DHT22;9642;50.842;4.348;2022-08-18T16:52:10;27.70;82.80
19019;DHT22;9642;50.842;4.348;2022-08-18T16:54:38;27.90;83.00
19019;DHT22;9642;50.842;4.348;2022-08-18T16:57:03;27.80;82.50
19019;DHT22;9642;50.842;4.348;2022-08-18T16:59:29;27.80;83.20
19019;DHT22;9642;50.842;4.348;2022-08-18T17:02:14;27.70;83.30
19019;DHT22;9642;50.842;4.348;2022-08-18T17:04:59;27.60;83.70
19019;DHT22;9642;50.842;4.348;2022-08-18T17:07:32;27.60;83.80
19019;DHT22;9642;50.842;4.348;2022-08-18T17:09:58;27.50;84.40
19019;DHT22;9642;50.842;4.348;2022-08-18T17:12:25;27.40;84.70
19019;DHT22;9642;50.842;4.348;2022-08-18T17:14:51;27.40;84.50
19019;DHT22;9642;50.842;4.348;2022-08-18T17:17:17;27.30;84.20
19019;DHT22;9642;50.842;4.348;2022-08-18T17:19:45;27.10;84.50
19019;DHT22;9642;50.842;4.348;2022-08-18T17:22:12;27.10;85.00
19019;DHT22;9642;50.842;4.348;2022-08-18T17:24:39;27.10;85.20
19019;DHT22;9642;50.842;4.348;2022-08-18T17:32:27;27.10;85.60
19019;DHT22;9642;50.842;4.348;2022-08-18T17:35:05;27.20;85.50
19019;DHT22;9642;50.842;4.348;2022-08-18T17:37:33;27.20;85.50
19019;DHT22;9642;50.842;4.348;2022-08-18T17:40:26;27.20;85.50
19019;DHT22;9642;50.842;4.348;2022-08-18T17:42:52;27.10;85.60
19019;DHT22;9642;50.842;4.348;2022-08-18T17:45:20;26.90;86.70
19019;DHT22;9642;50.842;4.348;2022-08-18T17:48:06;26.90;87.10
19019;DHT22;9642;50.842;4.348;2022-08-18T17:50:43;26.90;87.10
19019;DHT22;9642;50.842;4.348;2022-08-18T17:53:30;26.90;87.60
19019;DHT22;9642;50.842;4.348;2022-08-18T17:56:13;26.80;88.20
19019;DHT22;9642;50.842;4.348;2022-08-18T17:58:56;26.70;88.80
19019;DHT22;9642;50.842;4.348;2022-08-18T18:01:24;26.60;89.20
19019;DHT22;9642;50.842;4.348;2022-08-18T18:03:51;26.60;89.60
19019;DHT22;9642;50.842;4.348;2022-08-18T18:06:28;26.50;89.90
19019;DHT22;9642;50.842;4.348;2022-08-18T18:09:00;26.50;89.40
19019;DHT22;9642;50.842;4.348;2022-08-18T18:11:32;26.50;89.20
19019;DHT22;9642;50.842;4.348;2022-08-18T18:17:19;26.50;90.10
19019;DHT22;9642;50.842;4.348;2022-08-18T18:20:09;26.50;90.00
19019;DHT22;9642;50.842;4.348;2022-08-18T18:22:37;26.40;90.20
19019;DHT22;9642;50.842;4.348;2022-08-18T18:25:06;26.50;90.00
19019;DHT22;9642;50.842;4.348;2022-08-18T18:27:41;26.30;90.20
19019;DHT22;9642;50.842;4.348;2022-08-18T18:35:22;26.20;90.50
19019;DHT22;9642;50.842;4.348;2022-08-18T18:37:53;26.30;90.30